sensor_id;sensor_type;location;lat;lon;timestamp;pressure;altitude;pressure_sealevel;temperature;humidity
34925;BME280;21130;51.728;8.748;2023-02-23T00:00:13;100066.53;;;7.63;100.00
34925;BME280;21130;51.728;8.748;2023-02-23T00:02:46;100070.53;;;7.79;100.00
34925;BME280;21130;51.728;8.748;2023-02-23T00:05:13;100067.41;;;7.87;100.00
34925;BME280;21130;51.728;8.748;2023-02-23T00:07:41;100076.66;;;7.81;100.00
34925;BME280;21130;51.728;8.748;2023-02-23T00:10:10;100071.00;;;7.76;100.00
34925;BME280;21130;51.728;8.748;2023-02-23T00:12:37;100061.88;;;7.87;100.00
34925;BME280;21130;51.728;8.748;2023-02-23T00:15:06;100069.13;;;7.88;100.00
34925;BME280;21130;51.728;8.748;2023-02-23T00:17:32;100061.31;;;7.85;100.00
34925;BME280;21130;51.728;8.748;2023-02-23T00:20:01;100066.84;;;7.85;100.00
34925;BME280;21130;51.728;8.748;2023-02-23T00:22:32;100072.47;;;7.78;100.00
34925;BME280;21130;51.728;8.748;2023-02-23T00:24:58;100067.78;;;7.79;100.00
34925;BME280;21130;51.728;8.748;2023-02-23T00:27:25;100076.66;;;7.81;100.00
34925;BME280;21130;51.728;8.748;2023-02-23T00:29:51;100072.22;;;7.80;100.00
34925;BME280;21130;51.728;8.748;2023-02-23T00:32:19;100066.22;;;7.83;100.00
34925;BME280;21130;51.728;8.748;2023-02-23T00:34:46;100076.19;;;7.84;100.00
34925;BME280;21130;51.728;8.748;2023-02-23T00:37:16;100073.16;;;7.74;100.00
34925;BME280;21130;51.728;8.748;2023-02-23T00:39:43;100071.09;;;7.69;100.00
34925;BME280;21130;51.728;8.748;2023-02-23T00:42:10;100069.66;;;7.67;100.00
34925;BME280;21130;51.728;8.748;2023-02-23T00:44:37;100077.50;;;7.82;100.00
34925;BME280;21130;51.728;8.748;2023-02-23T00:47:05;100075.31;;;7.72;100.00
34925;BME280;21130;51.728;8.748;2023-02-23T00:49:33;100068.47;;;7.63;100.00
34925;BME280;21130;51.728;8.748;2023-02-23T00:52:00;100077.34;;;7.65;100.00
34925;BME280;21130;51.728;8.748;2023-02-23T00:54:26;100069.91;;;7.65;100.00
34925;BME280;21130;51.728;8.748;2023-02-23T00:56:53;100071.94;;;7.58;100.00
34925;BME280;21130;51.728;8.748;2023-02-23T00:59:19;100072.78;;;7.58;100.00
34925;BME280;21130;51.728;8.748;2023-02-23T01:01:46;100076.38;;;7.59;100.00
34925;BME280;21130;51.728;8.748;2023-02-23T01:04:13;100078.66;;;7.62;100.00
34925;BME280;21130;51.728;8.748;2023-02-23T01:06:42;100078.28;;;7.58;100.00
34925;BME280;21130;51.728;8.748;2023-02-23T01:09:13;100076.97;;;7.61;100.00
34925;BME280;21130;51.728;8.748;2023-02-23T01:11:41;100079.38;;;7.57;100.00
34925;BME280;21130;51.728;8.748;2023-02-23T01:14:10;100073.25;;;7.55;100.00
34925;BME280;21130;51.728;8.748;2023-02-23T01:16:37;100075.63;;;7.52;100.00
34925;BME280;21130;51.728;8.748;2023-02-23T01:19:04;100077.81;;;7.50;100.00
34925;BME280;21130;51.728;8.748;2023-02-23T01:21:33;100073.94;;;7.51;100.00
34925;BME280;21130;51.728;8.748;2023-02-23T01:24:02;100072.03;;;7.51;100.00
34925;BME280;21130;51.728;8.748;2023-02-23T01:26:31;100070.56;;;7.49;100.00
34925;BME280;21130;51.728;8.748;2023-02-23T01:28:59;100065.66;;;7.51;100.00
34925;BME280;21130;51.728;8.748;2023-02-23T01:31:28;100072.03;;;7.51;100.00
34925;BME280;21130;51.728;8.748;2023-02-23T01:33:55;100066.50;;;7.51;100.00
34925;BME280;21130;51.728;8.748;2023-02-23T01:36:22;100074.16;;;7.49;100.00
34925;BME280;21130;51.728;8.748;2023-02-23T01:38:49;100074.44;;;7.48;100.00
34925;BME280;21130;51.728;8.748;2023-02-23T01:41:20;100079.09;;;7.47;100.00
34925;BME280;21130;51.728;8.748;2023-02-23T01:43:58;100073.81;;;7.46;100.00
34925;BME280;21130;51.728;8.748;2023-02-23T01:46:26;100077.63;;;7.45;100.00
34925;BME280;21130;51.728;8.748;2023-02-23T01:48:53;100077.19;;;7.48;100.00
34925;BME280;21130;51.728;8.748;2023-02-23T01:51:22;100080.56;;;7.50;100.00
34925;BME280;21130;51.728;8.748;2023-02-23T01:53:55;100076.31;;;7.47;100.00
34925;BME280;21130;51.728;8.748;2023-02-23T01:56:27;100066.59;;;7.45;100.00
34925;BME280;21130;51.728;8.748;2023-02-23T01:58:56;100080.88;;;7.42;100.00
34925;BME280;21130;51.728;8.748;2023-02-23T02:01:24;100073.06;;;7.39;100.00
34925;BME280;21130;51.728;8.748;2023-02-23T02:03:55;100071.13;;;7.39;100.00
34925;BME280;21130;51.728;8.748;2023-02-23T02:06:23;100076.81;;;7.44;100.00
34925;BME280;21130;51.728;8.748;2023-02-23T02:08:55;100072.97;;;7.45;100.00
34925;BME280;21130;51.728;8.748;2023-02-23T02:11:24;100064.91;;;7.44;100.00
34925;BME280;21130;51.728;8.748;2023-02-23T02:13:58;100069.13;;;7.46;100.00
34925;BME280;21130;51.728;8.748;2023-02-23T02:16:43;100070.22;;;7.45;100.00
34925;BME280;21130;51.728;8.748;2023-02-23T02:22:37;100065.75;;;7.44;100.00
34925;BME280;21130;51.728;8.748;2023-02-23T02:25:23;100061.94;;;7.45;100.00
34925;BME280;21130;51.728;8.748;2023-02-23T02:31:35;100063.25;;;7.43;100.00
34925;BME280;21130;51.728;8.748;2023-02-23T02:34:31;100060.22;;;7.44;100.00
34925;BME280;21130;51.728;8.748;2023-02-23T02:37:25;100060.22;;;7.44;100.00
34925;BME280;21130;51.728;8.748;2023-02-23T02:40:05;100054.97;;;7.43;100.00
34925;BME280;21130;51.728;8.748;2023-02-23T02:42:56;100054.50;;;7.46;100.00
34925;BME280;21130;51.728;8.748;2023-02-23T02:45:28;100054.22;;;7.47;100.00
34925;BME280;21130;51.728;8.748;2023-02-23T02:48:00;100055.53;;;7.45;100.00
34925;BME280;21130;51.728;8.748;2023-02-23T02:50:41;100055.31;;;7.46;100.00
34925;BME280;21130;51.728;8.748;2023-02-23T02:53:13;100053.41;;;7.47;100.00
34925;BME280;21130;51.728;8.748;2023-02-23T02:55:43;100047.03;;;7.46;100.00
34925;BME280;21130;51.728;8.748;2023-02-23T02:58:13;100048.13;;;7.45;100.00
34925;BME280;21130;51.728;8.748;2023-02-23T03:00:45;100041.16;;;7.43;100.00
34925;BME280;21130;51.728;8.748;2023-02-23T03:03:33;100040.56;;;7.41;100.00
34925;BME280;21130;51.728;8.748;2023-02-23T03:06:21;100042.47;;;7.40;100.00
34925;BME280;21130;51.728;8.748;2023-02-23T03:09:16;100045.25;;;7.40;100.00
34925;BME280;21130;51.728;8.748;2023-02-23T03:12:10;100041.47;;;7.34;100.00
34925;BME280;21130;51.728;8.748;2023-02-23T03:15:01;100044.22;;;7.34;100.00
34925;BME280;21130;51.728;8.748;2023-02-23T03:17:48;100043.03;;;7.30;100.00
34925;BME280;21130;51.728;8.748;2023-02-23T03:20:41;100048.16;;;7.27;100.00
34925;BME280;21130;51.728;8.748;2023-02-23T03:23:33;100041.47;;;7.23;100.00
34925;BME280;21130;51.728;8.748;2023-02-23T03:26:27;100045.66;;;7.25;100.00
34925;BME280;21130;51.728;8.748;2023-02-23T03:29:17;100041.69;;;7.21;100.00
34925;BME280;21130;51.728;8.748;2023-02-23T03:32:06;100037.47;;;7.19;100.00
34925;BME280;21130;51.728;8.748;2023-02-23T03:34:56;100042.75;;;7.20;100.00
34925;BME280;21130;51.728;8.748;2023-02-23T03:37:48;100045.97;;;7.17;100.00
34925;BME280;21130;51.728;8.748;2023-02-23T03:40:35;100041.75;;;7.14;100.00
34925;BME280;21130;51.728;8.748;2023-02-23T03:43:26;100042.84;;;7.13;100.00
34925;BME280;21130;51.728;8.748;2023-02-23T03:46:15;100049.69;;;7.11;100.00
34925;BME280;21130;51.728;8.748;2023-02-23T03:49:02;100044.16;;;7.11;100.00
34925;BME280;21130;51.728;8.748;2023-02-23T03:51:50;100042.72;;;7.08;100.00
34925;BME280;21130;51.728;8.748;2023-02-23T03:54:38;100043.78;;;7.07;100.00
34925;BME280;21130;51.728;8.748;2023-02-23T03:57:27;100042.09;;;7.06;100.00
34925;BME280;21130;51.728;8.748;2023-02-23T04:00:17;100048.69;;;7.05;100.00
34925;BME280;21130;51.728;8.748;2023-02-23T04:03:05;100045.09;;;7.05;100.00
34925;BME280;21130;51.728;8.748;2023-02-23T04:05:53;100045.94;;;7.05;100.00
34925;BME280;21130;51.728;8.748;2023-02-23T04:08:39;100045.47;;;7.08;100.00
34925;BME280;21130;51.728;8.748;2023-02-23T04:11:29;100045.94;;;7.05;100.00
34925;BME280;21130;51.728;8.748;2023-02-23T04:14:19;100046.41;;;7.02;100.00
34925;BME280;21130;51.728;8.748;2023-02-23T04:16:51;100039.59;;;7.05;100.00
34925;BME280;21130;51.728;8.748;2023-02-23T04:19:17;100047.47;;;7.01;100.00
34925;BME280;21130;51.728;8.748;2023-02-23T04:21:43;100045.78;;;7.00;100.00
34925;BME280;21130;51.728;8.748;2023-02-23T04:24:10;100047.09;;;6.98;100.00
34925;BME280;21130;51.728;8.748;2023-02-23T04:26:36;100042.66;;;6.97;100.00
34925;BME280;21130;51.728;8.748;2023-02-23T04:29:03;100045.66;;;6.95;100.00
34925;BME280;21130;51.728;8.748;2023-02-23T04:31:29;100044.78;;;6.95;100.00
34925;BME280;21130;51.728;8.748;2023-02-23T04:33:57;100048.41;;;6.95;100.00
34925;BME280;21130;51.728;8.748;2023-02-23T04:36:23;100047.81;;;6.93;100.00
34925;BME280;21130;51.728;8.748;2023-02-23T04:38:51;100059.06;;;6.91;100.00
34925;BME280;21130;51.728;8.748;2023-02-23T04:41:17;100051.63;;;6.92;100.00
34925;BME280;21130;51.728;8.748;2023-02-23T04:43:44;100058.84;;;6.93;100.00
34925;BME280;21130;51.728;8.748;2023-02-23T04:46:10;100061.81;;;6.91;100.00
34925;BME280;21130;51.728;8.748;2023-02-23T04:48:38;100059.66;;;6.93;100.00
34925;BME280;21130;51.728;8.748;2023-02-23T04:51:06;100052.22;;;6.94;100.00
34925;BME280;21130;51.728;8.748;2023-02-23T04:53:32;100061.97;;;6.97;100.00
34925;BME280;21130;51.728;8.748;2023-02-23T04:55:59;100052.84;;;6.96;100.00
34925;BME280;21130;51.728;8.748;2023-02-23T04:58:26;100052.84;;;6.96;100.00
34925;BME280;21130;51.728;8.748;2023-02-23T05:00:52;100053.25;;;7.00;100.00
34925;BME280;21130;51.728;8.748;2023-02-23T05:03:19;100055.13;;;6.99;100.00
34925;BME280;21130;51.728;8.748;2023-02-23T05:05:45;100055.59;;;6.96;100.00
34925;BME280;21130;51.728;8.748;2023-02-23T05:08:13;100058.38;;;6.96;100.00
34925;BME280;21130;51.728;8.748;2023-02-23T05:10:39;100061.34;;;6.95;100.00
34925;BME280;21130;51.728;8.748;2023-02-23T05:13:06;100057.75;;;6.94;100.00
34925;BME280;21130;51.728;8.748;2023-02-23T05:15:32;100056.91;;;6.93;100.00
34925;BME280;21130;51.728;8.748;2023-02-23T05:17:59;100063.25;;;6.94;100.00
34925;BME280;21130;51.728;8.748;2023-02-23T05:20:25;100057.75;;;6.94;100.00
34925;BME280;21130;51.728;8.748;2023-02-23T05:22:52;100057.75;;;6.94;100.00
34925;BME280;21130;51.728;8.748;2023-02-23T05:25:21;100062.44;;;6.93;100.00
34925;BME280;21130;51.728;8.748;2023-02-23T05:27:48;100071.31;;;6.96;100.00
34925;BME280;21130;51.728;8.748;2023-02-23T05:30:15;100062.22;;;6.95;100.00
34925;BME280;21130;51.728;8.748;2023-02-23T05:32:41;100066.63;;;6.96;100.00
34925;BME280;21130;51.728;8.748;2023-02-23T05:35:09;100066.63;;;6.96;100.00
34925;BME280;21130;51.728;8.748;2023-02-23T05:37:35;100063.88;;;6.96;100.00
34925;BME280;21130;51.728;8.748;2023-02-23T05:40:03;100059.19;;;6.97;100.00
34925;BME280;21130;51.728;8.748;2023-02-23T05:42:31;100053.69;;;6.97;100.00
34925;BME280;21130;51.728;8.748;2023-02-23T05:44:58;100057.44;;;7.02;100.00
34925;BME280;21130;51.728;8.748;2023-02-23T05:47:24;100057.66;;;7.01;100.00
34925;BME280;21130;51.728;8.748;2023-02-23T05:49:51;100055.75;;;7.01;100.00
34925;BME280;21130;51.728;8.748;2023-02-23T05:52:17;100057.44;;;7.02;100.00
34925;BME280;21130;51.728;8.748;2023-02-23T05:54:44;100060.22;;;7.02;100.00
34925;BME280;21130;51.728;8.748;2023-02-23T05:57:10;100060.22;;;7.02;100.00
34925;BME280;21130;51.728;8.748;2023-02-23T05:59:38;100056.84;;;7.00;100.00
34925;BME280;21130;51.728;8.748;2023-02-23T06:02:05;100062.97;;;7.02;100.00
34925;BME280;21130;51.728;8.748;2023-02-23T06:04:32;100059.13;;;7.03;100.00
34925;BME280;21130;51.728;8.748;2023-02-23T06:06:59;100065.13;;;7.00;100.00
34925;BME280;21130;51.728;8.748;2023-02-23T06:09:25;100063.19;;;7.01;100.00
34925;BME280;21130;51.728;8.748;2023-02-23T06:11:52;100067.88;;;7.00;100.00
34925;BME280;21130;51.728;8.748;2023-02-23T06:14:19;100068.72;;;7.01;100.00
34925;BME280;21130;51.728;8.748;2023-02-23T06:16:47;100069.31;;;7.03;100.00
34925;BME280;21130;51.728;8.748;2023-02-23T06:19:13;100075.53;;;6.98;100.00
34925;BME280;21130;51.728;8.748;2023-02-23T06:21:40;100068.09;;;6.99;100.00
34925;BME280;21130;51.728;8.748;2023-02-23T06:24:06;100075.19;;;7.06;100.00
34925;BME280;21130;51.728;8.748;2023-02-23T06:26:33;100079.41;;;7.09;100.00
34925;BME280;21130;51.728;8.748;2023-02-23T06:28:59;100086.72;;;7.03;100.00
34925;BME280;21130;51.728;8.748;2023-02-23T06:31:26;100078.91;;;7.00;100.00
34925;BME280;21130;51.728;8.748;2023-02-23T06:33:54;100077.81;;;7.01;100.00
34925;BME280;21130;51.728;8.748;2023-02-23T06:36:20;100083.34;;;7.01;100.00
34925;BME280;21130;51.728;8.748;2023-02-23T06:38:47;100085.47;;;6.99;100.00
34925;BME280;21130;51.728;8.748;2023-02-23T06:41:13;100098.44;;;6.99;100.00
34925;BME280;21130;51.728;8.748;2023-02-23T06:43:40;100091.47;;;6.96;100.00
34925;BME280;21130;51.728;8.748;2023-02-23T06:46:06;100093.38;;;6.96;100.00
34925;BME280;21130;51.728;8.748;2023-02-23T06:48:33;100101.41;;;6.97;100.00
34925;BME280;21130;51.728;8.748;2023-02-23T06:51:02;100104.19;;;6.97;100.00
34925;BME280;21130;51.728;8.748;2023-02-23T06:53:29;100107.81;;;6.98;100.00
34925;BME280;21130;51.728;8.748;2023-02-23T06:55:56;100105.25;;;6.96;100.00
34925;BME280;21130;51.728;8.748;2023-02-23T06:58:22;100105.88;;;6.98;100.00
34925;BME280;21130;51.728;8.748;2023-02-23T07:00:49;100116.91;;;6.98;100.00
34925;BME280;21130;51.728;8.748;2023-02-23T07:03:15;100126.25;;;6.97;100.00
34925;BME280;21130;51.728;8.748;2023-02-23T07:05:44;100117.75;;;6.99;100.00
34925;BME280;21130;51.728;8.748;2023-02-23T07:08:12;100123.88;;;7.01;100.00
34925;BME280;21130;51.728;8.748;2023-02-23T07:10:38;100114.31;;;7.03;100.00
34925;BME280;21130;51.728;8.748;2023-02-23T07:13:05;100128.72;;;7.05;100.00
34925;BME280;21130;51.728;8.748;2023-02-23T07:15:31;100131.94;;;7.02;100.00
34925;BME280;21130;51.728;8.748;2023-02-23T07:17:58;100133.63;;;7.03;100.00
34925;BME280;21130;51.728;8.748;2023-02-23T07:20:24;100127.88;;;7.05;100.00
34925;BME280;21130;51.728;8.748;2023-02-23T07:22:51;100134.25;;;7.05;100.00
34925;BME280;21130;51.728;8.748;2023-02-23T07:25:20;100140.59;;;7.06;100.00
34925;BME280;21130;51.728;8.748;2023-02-23T07:27:47;100139.75;;;7.05;100.00
34925;BME280;21130;51.728;8.748;2023-02-23T07:30:13;100138.19;;;7.09;100.00
34925;BME280;21130;51.728;8.748;2023-02-23T07:32:42;100122.88;;;7.13;100.00
34925;BME280;21130;51.728;8.748;2023-02-23T07:35:09;100131.16;;;7.13;100.00
34925;BME280;21130;51.728;8.748;2023-02-23T07:37:36;100134.53;;;7.16;100.00
34925;BME280;21130;51.728;8.748;2023-02-23T07:40:03;100138.13;;;7.16;100.00
34925;BME280;21130;51.728;8.748;2023-02-23T07:42:31;100128.91;;;7.22;100.00
34925;BME280;21130;51.728;8.748;2023-02-23T07:44:57;100135.28;;;7.23;100.00
34925;BME280;21130;51.728;8.748;2023-02-23T07:47:24;100134.22;;;7.24;100.00
34925;BME280;21130;51.728;8.748;2023-02-23T07:49:56;100127.63;;;7.25;100.00
34925;BME280;21130;51.728;8.748;2023-02-23T07:52:22;100136.50;;;7.27;100.00
34925;BME280;21130;51.728;8.748;2023-02-23T07:54:50;100134.34;;;7.29;100.00
34925;BME280;21130;51.728;8.748;2023-02-23T07:57:17;100140.03;;;7.34;100.00
34925;BME280;21130;51.728;8.748;2023-02-23T07:59:46;100135.72;;;7.38;100.00
34925;BME280;21130;51.728;8.748;2023-02-23T08:02:13;100143.91;;;7.45;100.00
34925;BME280;21130;51.728;8.748;2023-02-23T08:04:40;100145.59;;;7.46;100.00
34925;BME280;21130;51.728;8.748;2023-02-23T08:07:09;100141.31;;;7.50;100.00
34925;BME280;21130;51.728;8.748;2023-02-23T08:09:35;100137.25;;;7.52;100.00
34925;BME280;21130;51.728;8.748;2023-02-23T08:12:02;100141.19;;;7.56;100.00
34925;BME280;21130;51.728;8.748;2023-02-23T08:14:29;100145.41;;;7.59;100.00
34925;BME280;21130;51.728;8.748;2023-02-23T08:16:57;100142.78;;;7.64;100.00
34925;BME280;21130;51.728;8.748;2023-02-23T08:19:26;100145.69;;;7.69;100.00
34925;BME280;21130;51.728;8.748;2023-02-23T08:21:54;100144.38;;;7.72;100.00
34925;BME280;21130;51.728;8.748;2023-02-23T08:24:21;100142.13;;;7.81;100.00
34925;BME280;21130;51.728;8.748;2023-02-23T08:26:48;100140.44;;;7.79;100.00
34925;BME280;21130;51.728;8.748;2023-02-23T08:29:15;100139.97;;;7.83;100.00
34925;BME280;21130;51.728;8.748;2023-02-23T08:31:42;100146.69;;;7.87;100.00
34925;BME280;21130;51.728;8.748;2023-02-23T08:34:10;100146.00;;;7.91;100.00
34925;BME280;21130;51.728;8.748;2023-02-23T08:36:37;100144.69;;;7.94;100.00
34925;BME280;21130;51.728;8.748;2023-02-23T08:39:04;100140.38;;;7.98;100.00
34925;BME280;21130;51.728;8.748;2023-02-23T08:41:31;100154.06;;;8.05;100.00
34925;BME280;21130;51.728;8.748;2023-02-23T08:43:58;100149.75;;;8.09;100.00
34925;BME280;21130;51.728;8.748;2023-02-23T08:46:25;100152.31;;;8.10;100.00
34925;BME280;21130;51.728;8.748;2023-02-23T08:48:51;100152.66;;;8.14;100.00
34925;BME280;21130;51.728;8.748;2023-02-23T08:51:19;100154.31;;;8.15;100.00
34925;BME280;21130;51.728;8.748;2023-02-23T08:53:46;100159.28;;;8.13;100.00
34925;BME280;21130;51.728;8.748;2023-02-23T08:56:13;100157.09;;;8.15;100.00
34925;BME280;21130;51.728;8.748;2023-02-23T08:58:40;100163.50;;;8.15;100.00
34925;BME280;21130;51.728;8.748;2023-02-23T09:01:17;100158.66;;;8.22;100.00
34925;BME280;21130;51.728;8.748;2023-02-23T09:03:46;100167.81;;;8.23;100.00
34925;BME280;21130;51.728;8.748;2023-02-23T09:06:15;100161.06;;;8.19;100.00
34925;BME280;21130;51.728;8.748;2023-02-23T09:08:43;100163.22;;;8.17;100.00
34925;BME280;21130;51.728;8.748;2023-02-23T09:11:10;100168.75;;;8.17;100.00
34925;BME280;21130;51.728;8.748;2023-02-23T09:13:37;100168.75;;;8.17;100.00
34925;BME280;21130;51.728;8.748;2023-02-23T09:16:04;100171.31;;;8.18;100.00
34925;BME280;21130;51.728;8.748;2023-02-23T09:18:32;100174.41;;;8.22;100.00
34925;BME280;21130;51.728;8.748;2023-02-23T09:20:58;100175.03;;;8.24;100.00
34925;BME280;21130;51.728;8.748;2023-02-23T09:23:31;100180.06;;;8.27;100.00
34925;BME280;21130;51.728;8.748;2023-02-23T09:26:03;100181.78;;;8.28;100.00
34925;BME280;21130;51.728;8.748;2023-02-23T09:28:29;100178.50;;;8.19;100.00
34925;BME280;21130;51.728;8.748;2023-02-23T09:30:58;100184.03;;;8.19;100.00
34925;BME280;21130;51.728;8.748;2023-02-23T09:33:29;100176.72;;;8.25;100.00
34925;BME280;21130;51.728;8.748;2023-02-23T09:35:56;100184.03;;;8.19;100.00
34925;BME280;21130;51.728;8.748;2023-02-23T09:38:22;100184.03;;;8.19;100.00
34925;BME280;21130;51.728;8.748;2023-02-23T09:40:52;100182.34;;;8.18;100.00
34925;BME280;21130;51.728;8.748;2023-02-23T09:43:24;100187.41;;;8.21;100.00
34925;BME280;21130;51.728;8.748;2023-02-23T09:45:58;100181.25;;;8.19;100.00
34925;BME280;21130;51.728;8.748;2023-02-23T09:48:27;100191.97;;;8.16;100.00
34925;BME280;21130;51.728;8.748;2023-02-23T09:50:57;100192.19;;;8.14;100.00
34925;BME280;21130;51.728;8.748;2023-02-23T09:53:29;100189.69;;;8.13;100.00
34925;BME280;21130;51.728;8.748;2023-02-23T09:55:58;100199.88;;;8.12;100.00
34925;BME280;21130;51.728;8.748;2023-02-23T09:58:28;100189.16;;;8.04;100.00
34925;BME280;21130;51.728;8.748;2023-02-23T10:01:16;100191.44;;;7.95;100.00
34925;BME280;21130;51.728;8.748;2023-02-23T10:03:50;100193.09;;;7.96;100.00
34925;BME280;21130;51.728;8.748;2023-02-23T10:06:19;100199.72;;;7.95;100.00
34925;BME280;21130;51.728;8.748;2023-02-23T10:08:53;100201.53;;;8.01;100.00
34925;BME280;21130;51.728;8.748;2023-02-23T10:11:28;100200.47;;;8.03;100.00
34925;BME280;21130;51.728;8.748;2023-02-23T10:14:11;100207.00;;;7.90;100.00
34925;BME280;21130;51.728;8.748;2023-02-23T10:16:48;100203.06;;;7.86;100.00
34925;BME280;21130;51.728;8.748;2023-02-23T10:19:23;100208.78;;;7.84;100.00
34925;BME280;21130;51.728;8.748;2023-02-23T10:21:55;100208.09;;;7.89;100.00
34925;BME280;21130;51.728;8.748;2023-02-23T10:24:25;100206.78;;;7.91;100.00
34925;BME280;21130;51.728;8.748;2023-02-23T10:26:56;100209.91;;;7.95;100.00
34925;BME280;21130;51.728;8.748;2023-02-23T10:29:29;100209.06;;;7.94;100.00
34925;BME280;21130;51.728;8.748;2023-02-23T10:31:59;100208.00;;;7.95;100.00
34925;BME280;21130;51.728;8.748;2023-02-23T10:34:28;100211.22;;;7.92;100.00
34925;BME280;21130;51.728;8.748;2023-02-23T10:36:58;100213.84;;;7.87;100.00
34925;BME280;21130;51.728;8.748;2023-02-23T10:39:26;100215.16;;;7.85;100.00
34925;BME280;21130;51.728;8.748;2023-02-23T10:41:54;100216.59;;;7.87;100.00
34925;BME280;21130;51.728;8.748;2023-02-23T10:44:23;100214.09;;;7.86;100.00
34925;BME280;21130;51.728;8.748;2023-02-23T10:46:54;100218.41;;;7.82;100.00
34925;BME280;21130;51.728;8.748;2023-02-23T10:49:28;100222.47;;;7.79;100.00
34925;BME280;21130;51.728;8.748;2023-02-23T10:51:58;100225.50;;;7.77;100.00
34925;BME280;21130;51.728;8.748;2023-02-23T10:54:38;100222.09;;;7.75;100.00
34925;BME280;21130;51.728;8.748;2023-02-23T10:57:09;100217.28;;;7.71;100.00
34925;BME280;21130;51.728;8.748;2023-02-23T10:59:40;100213.56;;;7.77;100.00
34925;BME280;21130;51.728;8.748;2023-02-23T11:02:23;100223.56;;;7.78;100.00
34925;BME280;21130;51.728;8.748;2023-02-23T11:04:53;100223.31;;;7.79;100.00
34925;BME280;21130;51.728;8.748;2023-02-23T11:07:23;100222.47;;;7.79;100.00
34925;BME280;21130;51.728;8.748;2023-02-23T11:09:54;100215.03;;;7.79;100.00
34925;BME280;21130;51.728;8.748;2023-02-23T11:12:23;100222.47;;;7.79;100.00
34925;BME280;21130;51.728;8.748;2023-02-23T11:14:51;100216.94;;;7.79;100.00
34925;BME280;21130;51.728;8.748;2023-02-23T11:17:32;100221.84;;;7.77;100.00
34925;BME280;21130;51.728;8.748;2023-02-23T11:20:04;100214.66;;;7.76;100.00
34925;BME280;21130;51.728;8.748;2023-02-23T11:22:34;100219.09;;;7.77;100.00
34925;BME280;21130;51.728;8.748;2023-02-23T11:25:10;100214.03;;;7.74;100.00
34925;BME280;21130;51.728;8.748;2023-02-23T11:27:45;100214.75;;;7.69;100.00
34925;BME280;21130;51.728;8.748;2023-02-23T11:30:19;100220.41;;;7.74;100.00
34925;BME280;21130;51.728;8.748;2023-02-23T11:32:52;100216.44;;;7.70;100.00
34925;BME280;21130;51.728;8.748;2023-02-23T11:35:30;100209.59;;;7.73;100.00
34925;BME280;21130;51.728;8.748;2023-02-23T11:37:56;100211.00;;;7.64;100.00
34925;BME280;21130;51.728;8.748;2023-02-23T11:40:26;100218.06;;;7.60;100.00
34925;BME280;21130;51.728;8.748;2023-02-23T11:42:54;100207.63;;;7.62;100.00
34925;BME280;21130;51.728;8.748;2023-02-23T11:45:22;100209.75;;;7.60;100.00
34925;BME280;21130;51.728;8.748;2023-02-23T11:47:53;100220.44;;;7.56;100.00
34925;BME280;21130;51.728;8.748;2023-02-23T11:50:26;100216.38;;;7.58;100.00
34925;BME280;21130;51.728;8.748;2023-02-23T11:52:56;100209.19;;;7.57;100.00
34925;BME280;21130;51.728;8.748;2023-02-23T11:55:26;100206.84;;;7.73;100.00
34925;BME280;21130;51.728;8.748;2023-02-23T11:58:07;100201.22;;;7.79;100.00
34925;BME280;21130;51.728;8.748;2023-02-23T12:00:33;100195.59;;;7.86;100.00
34925;BME280;21130;51.728;8.748;2023-02-23T12:03:02;100196.34;;;7.93;100.00
34925;BME280;21130;51.728;8.748;2023-02-23T12:05:31;100198.50;;;7.91;100.00
34925;BME280;21130;51.728;8.748;2023-02-23T12:08:03;100202.00;;;7.98;100.00
34925;BME280;21130;51.728;8.748;2023-02-23T12:10:34;100196.09;;;7.95;100.00
34925;BME280;21130;51.728;8.748;2023-02-23T12:13:11;100203.06;;;7.97;100.00
34925;BME280;21130;51.728;8.748;2023-02-23T12:15:43;100198.03;;;7.94;100.00
34925;BME280;21130;51.728;8.748;2023-02-23T12:18:26;100201.75;;;7.88;100.00
34925;BME280;21130;51.728;8.748;2023-02-23T12:20:56;100194.41;;;7.94;100.00
34925;BME280;21130;51.728;8.748;2023-02-23T12:23:30;100195.16;;;8.01;100.00
34925;BME280;21130;51.728;8.748;2023-02-23T12:26:03;100187.97;;;8.00;100.00
34925;BME280;21130;51.728;8.748;2023-02-23T12:28:33;100192.03;;;7.97;100.00
34925;BME280;21130;51.728;8.748;2023-02-23T12:31:05;100198.06;;;8.06;100.00
34925;BME280;21130;51.728;8.748;2023-02-23T12:33:43;100189.13;;;7.92;100.00
34925;BME280;21130;51.728;8.748;2023-02-23T12:36:25;100195.59;;;7.86;100.00
34925;BME280;21130;51.728;8.748;2023-02-23T12:38:57;100186.13;;;7.94;100.00
34925;BME280;21130;51.728;8.748;2023-02-23T12:41:32;100191.19;;;7.97;100.00
34925;BME280;21130;51.728;8.748;2023-02-23T12:44:04;100184.69;;;7.91;100.00
34925;BME280;21130;51.728;8.748;2023-02-23T12:46:40;100174.00;;;7.95;100.00
34925;BME280;21130;51.728;8.748;2023-02-23T12:49:16;100187.44;;;7.91;100.00
34925;BME280;21130;51.728;8.748;2023-02-23T12:51:48;100188.06;;;7.93;100.00
34925;BME280;21130;51.728;8.748;2023-02-23T12:54:17;100184.91;;;7.90;100.00
34925;BME280;21130;51.728;8.748;2023-02-23T12:56:51;100186.34;;;7.92;100.00
34925;BME280;21130;51.728;8.748;2023-02-23T12:59:39;100181.84;;;7.98;100.00
34925;BME280;21130;51.728;8.748;2023-02-23T13:02:13;100178.72;;;8.06;100.00
34925;BME280;21130;51.728;8.748;2023-02-23T13:04:59;100186.75;;;7.96;100.00
34925;BME280;21130;51.728;8.748;2023-02-23T13:07:37;100188.97;;;7.87;100.00
34925;BME280;21130;51.728;8.748;2023-02-23T13:10:14;100187.78;;;7.83;100.00
34925;BME280;21130;51.728;8.748;2023-02-23T13:12:52;100198.22;;;7.81;100.00
34925;BME280;21130;51.728;8.748;2023-02-23T13:15:30;100197.13;;;7.82;100.00
34925;BME280;21130;51.728;8.748;2023-02-23T13:18:05;100197.13;;;7.82;100.00